sensor_id;sensor_type;location;lat;lon;timestamp;P1;durP1;ratioP1;P2;durP2;ratioP2
65033;SDS011;51601;51.356;12.458;2023-05-15T00:01:00;8.90;;;5.30;;
65033;SDS011;51601;51.356;12.458;2023-05-15T00:05:20;9.70;;;5.30;;
65033;SDS011;51601;51.356;12.458;2023-05-15T00:09:39;9.98;;;5.45;;
65033;SDS011;51601;51.356;12.458;2023-05-15T00:13:57;10.50;;;6.27;;
65033;SDS011;51601;51.356;12.458;2023-05-15T00:18:15;9.35;;;5.05;;
65033;SDS011;51601;51.356;12.458;2023-05-15T00:22:35;9.82;;;5.40;;
65033;SDS011;51601;51.356;12.458;2023-05-15T00:26:55;9.43;;;4.93;;
65033;SDS011;51601;51.356;12.458;2023-05-15T00:31:13;10.20;;;5.40;;
65033;SDS011;51601;51.356;12.458;2023-05-15T00:35:31;9.63;;;5.47;;
65033;SDS011;51601;51.356;12.458;2023-05-15T00:39:50;10.43;;;5.50;;
65033;SDS011;51601;51.356;12.458;2023-05-15T00:44:10;9.50;;;5.57;;
65033;SDS011;51601;51.356;12.458;2023-05-15T00:48:28;10.48;;;5.22;;
65033;SDS011;51601;51.356;12.458;2023-05-15T00:52:46;10.48;;;5.75;;
65033;SDS011;51601;51.356;12.458;2023-05-15T00:57:05;10.53;;;5.27;;
65033;SDS011;51601;51.356;12.458;2023-05-15T01:01:25;9.45;;;5.10;;
65033;SDS011;51601;51.356;12.458;2023-05-15T01:05:50;9.95;;;5.15;;
65033;SDS011;51601;51.356;12.458;2023-05-15T01:10:08;10.48;;;5.38;;
65033;SDS011;51601;51.356;12.458;2023-05-15T01:14:30;9.27;;;5.50;;
65033;SDS011;51601;51.356;12.458;2023-05-15T01:18:50;10.95;;;5.90;;
65033;SDS011;51601;51.356;12.458;2023-05-15T01:23:08;13.45;;;6.65;;
65033;SDS011;51601;51.356;12.458;2023-05-15T01:27:34;11.10;;;5.93;;
65033;SDS011;51601;51.356;12.458;2023-05-15T01:31:57;10.88;;;5.68;;
65033;SDS011;51601;51.356;12.458;2023-05-15T01:36:23;10.40;;;5.88;;
65033;SDS011;51601;51.356;12.458;2023-05-15T01:40:58;9.13;;;5.40;;
65033;SDS011;51601;51.356;12.458;2023-05-15T01:45:20;11.27;;;5.70;;
65033;SDS011;51601;51.356;12.458;2023-05-15T01:49:43;9.73;;;5.50;;
65033;SDS011;51601;51.356;12.458;2023-05-15T01:54:04;12.13;;;6.28;;
65033;SDS011;51601;51.356;12.458;2023-05-15T01:58:25;10.80;;;5.63;;
65033;SDS011;51601;51.356;12.458;2023-05-15T02:02:47;11.85;;;6.43;;
65033;SDS011;51601;51.356;12.458;2023-05-15T02:07:07;12.82;;;6.72;;
65033;SDS011;51601;51.356;12.458;2023-05-15T02:11:25;11.87;;;6.10;;
65033;SDS011;51601;51.356;12.458;2023-05-15T02:15:43;11.20;;;6.35;;
65033;SDS011;51601;51.356;12.458;2023-05-15T02:20:02;11.27;;;5.97;;
65033;SDS011;51601;51.356;12.458;2023-05-15T02:24:22;13.40;;;7.03;;
65033;SDS011;51601;51.356;12.458;2023-05-15T02:28:41;14.05;;;6.63;;
65033;SDS011;51601;51.356;12.458;2023-05-15T02:33:11;12.02;;;5.90;;
65033;SDS011;51601;51.356;12.458;2023-05-15T02:37:39;12.10;;;6.32;;
65033;SDS011;51601;51.356;12.458;2023-05-15T02:42:02;10.70;;;6.13;;
65033;SDS011;51601;51.356;12.458;2023-05-15T02:46:23;12.35;;;7.00;;
65033;SDS011;51601;51.356;12.458;2023-05-15T02:50:44;12.73;;;6.25;;
65033;SDS011;51601;51.356;12.458;2023-05-15T02:55:04;11.93;;;6.40;;
65033;SDS011;51601;51.356;12.458;2023-05-15T02:59:23;14.85;;;6.82;;
65033;SDS011;51601;51.356;12.458;2023-05-15T03:03:41;13.85;;;7.03;;
65033;SDS011;51601;51.356;12.458;2023-05-15T03:07:59;11.97;;;6.07;;
65033;SDS011;51601;51.356;12.458;2023-05-15T03:12:19;12.05;;;6.00;;
65033;SDS011;51601;51.356;12.458;2023-05-15T03:16:39;13.35;;;6.82;;
65033;SDS011;51601;51.356;12.458;2023-05-15T03:20:57;12.43;;;7.05;;
65033;SDS011;51601;51.356;12.458;2023-05-15T03:25:15;14.70;;;7.53;;
65033;SDS011;51601;51.356;12.458;2023-05-15T03:29:34;14.82;;;7.80;;
65033;SDS011;51601;51.356;12.458;2023-05-15T03:33:54;13.43;;;7.72;;
65033;SDS011;51601;51.356;12.458;2023-05-15T03:38:12;13.57;;;7.87;;
65033;SDS011;51601;51.356;12.458;2023-05-15T03:42:30;15.18;;;7.63;;
65033;SDS011;51601;51.356;12.458;2023-05-15T03:46:49;14.38;;;7.22;;
65033;SDS011;51601;51.356;12.458;2023-05-15T03:51:09;13.40;;;7.40;;
65033;SDS011;51601;51.356;12.458;2023-05-15T03:55:27;14.23;;;7.40;;
65033;SDS011;51601;51.356;12.458;2023-05-15T03:59:45;11.93;;;6.70;;
65033;SDS011;51601;51.356;12.458;2023-05-15T04:04:05;13.75;;;7.53;;
65033;SDS011;51601;51.356;12.458;2023-05-15T04:08:24;13.33;;;7.77;;
65033;SDS011;51601;51.356;12.458;2023-05-15T04:12:43;12.52;;;7.07;;
65033;SDS011;51601;51.356;12.458;2023-05-15T04:17:01;13.18;;;7.10;;
65033;SDS011;51601;51.356;12.458;2023-05-15T04:21:21;16.00;;;8.50;;
65033;SDS011;51601;51.356;12.458;2023-05-15T04:25:43;15.77;;;7.95;;
65033;SDS011;51601;51.356;12.458;2023-05-15T04:30:01;14.63;;;7.80;;
65033;SDS011;51601;51.356;12.458;2023-05-15T04:34:19;13.37;;;7.80;;
65033;SDS011;51601;51.356;12.458;2023-05-15T04:38:38;13.90;;;7.47;;
65033;SDS011;51601;51.356;12.458;2023-05-15T04:42:58;12.85;;;7.05;;
65033;SDS011;51601;51.356;12.458;2023-05-15T04:47:19;15.93;;;8.05;;
65033;SDS011;51601;51.356;12.458;2023-05-15T04:51:37;14.83;;;7.50;;
65033;SDS011;51601;51.356;12.458;2023-05-15T04:55:57;14.85;;;8.40;;
65033;SDS011;51601;51.356;12.458;2023-05-15T05:00:17;18.25;;;9.05;;
65033;SDS011;51601;51.356;12.458;2023-05-15T05:04:35;17.00;;;8.73;;
65033;SDS011;51601;51.356;12.458;2023-05-15T05:08:53;15.50;;;7.93;;
65033;SDS011;51601;51.356;12.458;2023-05-15T05:13:13;15.20;;;8.05;;
65033;SDS011;51601;51.356;12.458;2023-05-15T05:17:32;16.13;;;7.90;;
65033;SDS011;51601;51.356;12.458;2023-05-15T05:21:50;15.52;;;8.23;;
65033;SDS011;51601;51.356;12.458;2023-05-15T05:26:08;13.75;;;7.50;;
65033;SDS011;51601;51.356;12.458;2023-05-15T05:30:28;13.95;;;8.15;;
65033;SDS011;51601;51.356;12.458;2023-05-15T05:34:47;13.70;;;7.53;;
65033;SDS011;51601;51.356;12.458;2023-05-15T05:39:05;12.73;;;7.63;;
65033;SDS011;51601;51.356;12.458;2023-05-15T05:43:24;12.80;;;8.15;;
65033;SDS011;51601;51.356;12.458;2023-05-15T05:47:44;13.77;;;7.87;;
65033;SDS011;51601;51.356;12.458;2023-05-15T05:52:06;14.40;;;7.93;;
65033;SDS011;51601;51.356;12.458;2023-05-15T05:56:24;13.82;;;7.95;;
65033;SDS011;51601;51.356;12.458;2023-05-15T06:00:42;13.00;;;7.87;;
65033;SDS011;51601;51.356;12.458;2023-05-15T06:05:01;15.10;;;7.60;;
65033;SDS011;51601;51.356;12.458;2023-05-15T06:09:21;12.05;;;7.53;;
65033;SDS011;51601;51.356;12.458;2023-05-15T06:13:39;12.13;;;7.35;;
65033;SDS011;51601;51.356;12.458;2023-05-15T06:17:57;13.00;;;6.93;;
65033;SDS011;51601;51.356;12.458;2023-05-15T06:22:16;11.80;;;7.25;;
65033;SDS011;51601;51.356;12.458;2023-05-15T06:26:36;11.10;;;7.13;;
65033;SDS011;51601;51.356;12.458;2023-05-15T06:30:54;11.23;;;7.17;;
65033;SDS011;51601;51.356;12.458;2023-05-15T06:35:12;11.02;;;7.22;;
65033;SDS011;51601;51.356;12.458;2023-05-15T06:39:32;12.10;;;6.70;;
65033;SDS011;51601;51.356;12.458;2023-05-15T06:43:51;11.10;;;6.97;;
65033;SDS011;51601;51.356;12.458;2023-05-15T06:48:09;10.38;;;6.55;;
65033;SDS011;51601;51.356;12.458;2023-05-15T06:52:28;10.23;;;6.40;;
65033;SDS011;51601;51.356;12.458;2023-05-15T06:56:47;8.93;;;5.90;;
65033;SDS011;51601;51.356;12.458;2023-05-15T07:01:07;9.47;;;5.67;;
65033;SDS011;51601;51.356;12.458;2023-05-15T07:05:25;9.00;;;5.90;;
65033;SDS011;51601;51.356;12.458;2023-05-15T07:09:43;10.13;;;6.22;;
65033;SDS011;51601;51.356;12.458;2023-05-15T07:14:05;8.70;;;5.50;;
65033;SDS011;51601;51.356;12.458;2023-05-15T07:18:25;9.20;;;5.90;;
65033;SDS011;51601;51.356;12.458;2023-05-15T07:22:43;9.10;;;6.25;;
65033;SDS011;51601;51.356;12.458;2023-05-15T07:27:14;8.80;;;6.07;;
65033;SDS011;51601;51.356;12.458;2023-05-15T07:31:33;12.05;;;6.53;;
65033;SDS011;51601;51.356;12.458;2023-05-15T07:35:53;8.10;;;5.75;;
65033;SDS011;51601;51.356;12.458;2023-05-15T07:40:14;9.52;;;6.15;;
65033;SDS011;51601;51.356;12.458;2023-05-15T07:44:32;8.27;;;5.47;;
65033;SDS011;51601;51.356;12.458;2023-05-15T07:48:51;9.57;;;5.72;;
65033;SDS011;51601;51.356;12.458;2023-05-15T07:53:11;11.05;;;5.60;;
65033;SDS011;51601;51.356;12.458;2023-05-15T07:57:32;11.23;;;6.23;;
65033;SDS011;51601;51.356;12.458;2023-05-15T08:01:50;8.80;;;5.32;;
65033;SDS011;51601;51.356;12.458;2023-05-15T08:06:10;8.65;;;5.55;;
65033;SDS011;51601;51.356;12.458;2023-05-15T08:10:29;10.20;;;5.17;;
65033;SDS011;51601;51.356;12.458;2023-05-15T08:14:48;8.20;;;5.15;;
65033;SDS011;51601;51.356;12.458;2023-05-15T08:19:06;7.85;;;5.55;;
65033;SDS011;51601;51.356;12.458;2023-05-15T08:23:28;7.60;;;4.95;;
65033;SDS011;51601;51.356;12.458;2023-05-15T08:27:48;8.50;;;5.30;;
65033;SDS011;51601;51.356;12.458;2023-05-15T08:32:07;7.45;;;5.03;;
65033;SDS011;51601;51.356;12.458;2023-05-15T08:36:27;8.18;;;4.63;;
65033;SDS011;51601;51.356;12.458;2023-05-15T08:40:46;9.57;;;4.63;;
65033;SDS011;51601;51.356;12.458;2023-05-15T08:45:07;7.15;;;4.00;;
65033;SDS011;51601;51.356;12.458;2023-05-15T08:49:31;6.57;;;3.63;;
65033;SDS011;51601;51.356;12.458;2023-05-15T08:53:55;6.90;;;3.90;;
65033;SDS011;51601;51.356;12.458;2023-05-15T08:58:14;6.78;;;3.50;;
65033;SDS011;51601;51.356;12.458;2023-05-15T09:02:34;6.78;;;3.40;;
65033;SDS011;51601;51.356;12.458;2023-05-15T09:06:52;6.00;;;3.40;;
65033;SDS011;51601;51.356;12.458;2023-05-15T09:11:10;5.93;;;3.10;;
65033;SDS011;51601;51.356;12.458;2023-05-15T09:15:32;5.90;;;3.28;;
65033;SDS011;51601;51.356;12.458;2023-05-15T09:19:52;6.30;;;3.10;;
65033;SDS011;51601;51.356;12.458;2023-05-15T09:24:17;7.30;;;3.70;;
65033;SDS011;51601;51.356;12.458;2023-05-15T09:28:38;6.28;;;3.20;;
65033;SDS011;51601;51.356;12.458;2023-05-15T09:32:59;5.88;;;3.13;;
65033;SDS011;51601;51.356;12.458;2023-05-15T09:37:26;7.37;;;3.10;;
65033;SDS011;51601;51.356;12.458;2023-05-15T09:41:47;5.88;;;3.20;;
65033;SDS011;51601;51.356;12.458;2023-05-15T09:46:05;6.38;;;3.45;;
65033;SDS011;51601;51.356;12.458;2023-05-15T09:50:32;11.07;;;3.90;;
65033;SDS011;51601;51.356;12.458;2023-05-15T09:54:50;7.03;;;3.00;;
65033;SDS011;51601;51.356;12.458;2023-05-15T09:59:11;7.93;;;4.00;;
65033;SDS011;51601;51.356;12.458;2023-05-15T10:03:30;7.55;;;4.03;;
65033;SDS011;51601;51.356;12.458;2023-05-15T10:07:50;8.63;;;4.40;;
65033;SDS011;51601;51.356;12.458;2023-05-15T10:12:12;7.35;;;4.22;;
65033;SDS011;51601;51.356;12.458;2023-05-15T10:16:30;8.60;;;4.13;;
65033;SDS011;51601;51.356;12.458;2023-05-15T10:20:51;7.00;;;3.80;;
65033;SDS011;51601;51.356;12.458;2023-05-15T10:25:12;7.10;;;3.25;;
65033;SDS011;51601;51.356;12.458;2023-05-15T10:29:33;6.80;;;3.60;;
65033;SDS011;51601;51.356;12.458;2023-05-15T10:33:51;7.82;;;3.65;;
65033;SDS011;51601;51.356;12.458;2023-05-15T10:38:12;7.13;;;3.63;;
65033;SDS011;51601;51.356;12.458;2023-05-15T10:42:32;7.47;;;3.50;;
65033;SDS011;51601;51.356;12.458;2023-05-15T10:46:52;6.13;;;3.55;;
65033;SDS011;51601;51.356;12.458;2023-05-15T10:51:16;8.07;;;3.43;;
65033;SDS011;51601;51.356;12.458;2023-05-15T10:55:40;6.07;;;2.50;;
65033;SDS011;51601;51.356;12.458;2023-05-15T11:00:03;6.38;;;3.03;;
65033;SDS011;51601;51.356;12.458;2023-05-15T11:04:44;7.27;;;3.17;;
65033;SDS011;51601;51.356;12.458;2023-05-15T11:14:12;7.18;;;2.92;;
65033;SDS011;51601;51.356;12.458;2023-05-15T11:18:32;6.20;;;3.00;;
65033;SDS011;51601;51.356;12.458;2023-05-15T11:22:57;6.67;;;2.90;;
65033;SDS011;51601;51.356;12.458;2023-05-15T11:27:16;6.03;;;2.97;;
65033;SDS011;51601;51.356;12.458;2023-05-15T11:31:37;5.93;;;3.65;;
65033;SDS011;51601;51.356;12.458;2023-05-15T11:35:57;6.47;;;3.90;;
65033;SDS011;51601;51.356;12.458;2023-05-15T11:40:19;8.20;;;4.30;;
65033;SDS011;51601;51.356;12.458;2023-05-15T11:44:40;7.97;;;4.53;;
65033;SDS011;51601;51.356;12.458;2023-05-15T11:48:58;9.30;;;4.73;;
65033;SDS011;51601;51.356;12.458;2023-05-15T11:53:18;8.70;;;5.88;;
65033;SDS011;51601;51.356;12.458;2023-05-15T11:57:37;9.63;;;5.50;;
65033;SDS011;51601;51.356;12.458;2023-05-15T12:01:55;8.95;;;5.65;;
65033;SDS011;51601;51.356;12.458;2023-05-15T12:06:16;8.70;;;5.93;;
65033;SDS011;51601;51.356;12.458;2023-05-15T12:10:39;8.98;;;5.95;;
65033;SDS011;51601;51.356;12.458;2023-05-15T12:14:59;10.00;;;5.65;;
65033;SDS011;51601;51.356;12.458;2023-05-15T12:19:17;10.37;;;6.30;;
65033;SDS011;51601;51.356;12.458;2023-05-15T12:23:35;10.73;;;5.68;;
65033;SDS011;51601;51.356;12.458;2023-05-15T12:27:54;9.95;;;6.10;;
65033;SDS011;51601;51.356;12.458;2023-05-15T12:32:14;8.70;;;5.83;;
65033;SDS011;51601;51.356;12.458;2023-05-15T12:36:32;11.23;;;6.47;;
65033;SDS011;51601;51.356;12.458;2023-05-15T12:40:50;11.23;;;6.05;;
65033;SDS011;51601;51.356;12.458;2023-05-15T12:45:13;10.52;;;5.20;;
65033;SDS011;51601;51.356;12.458;2023-05-15T12:49:34;11.50;;;5.50;;
65033;SDS011;51601;51.356;12.458;2023-05-15T12:53:53;9.82;;;5.40;;
65033;SDS011;51601;51.356;12.458;2023-05-15T12:58:15;9.93;;;5.15;;
65033;SDS011;51601;51.356;12.458;2023-05-15T13:02:37;7.50;;;4.60;;
65033;SDS011;51601;51.356;12.458;2023-05-15T13:06:57;8.30;;;4.25;;
65033;SDS011;51601;51.356;12.458;2023-05-15T13:11:15;7.50;;;4.32;;
65033;SDS011;51601;51.356;12.458;2023-05-15T13:15:34;8.40;;;4.50;;
65033;SDS011;51601;51.356;12.458;2023-05-15T13:19:55;7.82;;;4.75;;
65033;SDS011;51601;51.356;12.458;2023-05-15T13:24:15;8.90;;;4.47;;
65033;SDS011;51601;51.356;12.458;2023-05-15T13:28:33;7.53;;;4.65;;
65033;SDS011;51601;51.356;12.458;2023-05-15T13:32:51;8.37;;;4.57;;
65033;SDS011;51601;51.356;12.458;2023-05-15T13:37:14;7.72;;;5.00;;
65033;SDS011;51601;51.356;12.458;2023-05-15T13:41:35;8.80;;;4.80;;
65033;SDS011;51601;51.356;12.458;2023-05-15T13:45:55;13.53;;;4.83;;
65033;SDS011;51601;51.356;12.458;2023-05-15T13:50:13;10.15;;;4.38;;
65033;SDS011;51601;51.356;12.458;2023-05-15T13:54:35;8.93;;;4.68;;
65033;SDS011;51601;51.356;12.458;2023-05-15T13:58:55;7.20;;;4.63;;
65033;SDS011;51601;51.356;12.458;2023-05-15T14:03:13;8.77;;;4.93;;
65033;SDS011;51601;51.356;12.458;2023-05-15T14:07:31;8.35;;;4.47;;
65033;SDS011;51601;51.356;12.458;2023-05-15T14:11:50;8.43;;;4.53;;
65033;SDS011;51601;51.356;12.458;2023-05-15T14:16:10;7.23;;;3.70;;
65033;SDS011;51601;51.356;12.458;2023-05-15T14:20:28;6.97;;;3.70;;
65033;SDS011;51601;51.356;12.458;2023-05-15T14:24:46;6.28;;;3.50;;
65033;SDS011;51601;51.356;12.458;2023-05-15T14:29:06;6.60;;;3.60;;
65033;SDS011;51601;51.356;12.458;2023-05-15T14:33:26;9.40;;;4.10;;
65033;SDS011;51601;51.356;12.458;2023-05-15T14:37:44;6.60;;;3.88;;
65033;SDS011;51601;51.356;12.458;2023-05-15T14:42:02;6.33;;;3.63;;
65033;SDS011;51601;51.356;12.458;2023-05-15T14:46:24;6.40;;;3.78;;
65033;SDS011;51601;51.356;12.458;2023-05-15T14:50:44;8.63;;;3.88;;
65033;SDS011;51601;51.356;12.458;2023-05-15T14:55:02;5.93;;;3.40;;
65033;SDS011;51601;51.356;12.458;2023-05-15T14:59:26;6.37;;;3.47;;
65033;SDS011;51601;51.356;12.458;2023-05-15T15:03:46;6.93;;;3.88;;
65033;SDS011;51601;51.356;12.458;2023-05-15T15:08:06;7.18;;;3.90;;
65033;SDS011;51601;51.356;12.458;2023-05-15T15:12:26;8.57;;;4.13;;
65033;SDS011;51601;51.356;12.458;2023-05-15T15:16:45;8.90;;;4.00;;
65033;SDS011;51601;51.356;12.458;2023-05-15T15:21:04;6.60;;;3.88;;
65033;SDS011;51601;51.356;12.458;2023-05-15T15:25:24;7.27;;;4.43;;
65033;SDS011;51601;51.356;12.458;2023-05-15T15:29:42;7.50;;;4.18;;
65033;SDS011;51601;51.356;12.458;2023-05-15T15:34:00;8.05;;;4.60;;
65033;SDS011;51601;51.356;12.458;2023-05-15T15:38:22;9.70;;;4.15;;
65033;SDS011;51601;51.356;12.458;2023-05-15T15:42:42;6.90;;;4.10;;
65033;SDS011;51601;51.356;12.458;2023-05-15T15:47:00;11.10;;;4.15;;
65033;SDS011;51601;51.356;12.458;2023-05-15T15:51:18;8.90;;;3.90;;
65033;SDS011;51601;51.356;12.458;2023-05-15T15:55:38;6.93;;;3.80;;
65033;SDS011;51601;51.356;12.458;2023-05-15T15:59:57;8.48;;;4.32;;
65033;SDS011;51601;51.356;12.458;2023-05-15T16:04:15;7.38;;;4.80;;
65033;SDS011;51601;51.356;12.458;2023-05-15T16:08:33;6.90;;;3.90;;
65033;SDS011;51601;51.356;12.458;2023-05-15T16:12:53;7.50;;;4.18;;
65033;SDS011;51601;51.356;12.458;2023-05-15T16:17:13;8.43;;;3.85;;
65033;SDS011;51601;51.356;12.458;2023-05-15T16:21:31;11.57;;;4.55;;
65033;SDS011;51601;51.356;12.458;2023-05-15T16:25:52;7.80;;;3.80;;
65033;SDS011;51601;51.356;12.458;2023-05-15T16:30:12;7.00;;;3.83;;
65033;SDS011;51601;51.356;12.458;2023-05-15T16:34:31;7.82;;;3.78;;
65033;SDS011;51601;51.356;12.458;2023-05-15T16:38:49;7.13;;;3.90;;
65033;SDS011;51601;51.356;12.458;2023-05-15T16:43:07;7.35;;;3.80;;
65033;SDS011;51601;51.356;12.458;2023-05-15T16:47:26;7.53;;;4.22;;
65033;SDS011;51601;51.356;12.458;2023-05-15T16:51:46;9.17;;;4.20;;
65033;SDS011;51601;51.356;12.458;2023-05-15T16:56:05;8.07;;;4.25;;
65033;SDS011;51601;51.356;12.458;2023-05-15T17:00:22;7.63;;;4.15;;
65033;SDS011;51601;51.356;12.458;2023-05-15T17:04:43;9.13;;;3.88;;
65033;SDS011;51601;51.356;12.458;2023-05-15T17:09:02;8.03;;;4.10;;
65033;SDS011;51601;51.356;12.458;2023-05-15T17:13:20;7.60;;;3.97;;
65033;SDS011;51601;51.356;12.458;2023-05-15T17:17:38;7.95;;;4.10;;
65033;SDS011;51601;51.356;12.458;2023-05-15T17:21:57;7.23;;;4.00;;
65033;SDS011;51601;51.356;12.458;2023-05-15T17:26:17;8.05;;;4.25;;
65033;SDS011;51601;51.356;12.458;2023-05-15T17:30:35;7.53;;;4.10;;
65033;SDS011;51601;51.356;12.458;2023-05-15T17:34:53;7.73;;;4.00;;
65033;SDS011;51601;51.356;12.458;2023-05-15T17:39:12;9.27;;;3.90;;
65033;SDS011;51601;51.356;12.458;2023-05-15T17:43:32;7.75;;;4.00;;
65033;SDS011;51601;51.356;12.458;2023-05-15T17:47:50;8.15;;;4.28;;
65033;SDS011;51601;51.356;12.458;2023-05-15T17:52:08;8.13;;;3.80;;
65033;SDS011;51601;51.356;12.458;2023-05-15T17:56:28;7.78;;;4.03;;
65033;SDS011;51601;51.356;12.458;2023-05-15T18:00:51;8.40;;;4.30;;
65033;SDS011;51601;51.356;12.458;2023-05-15T18:05:09;7.27;;;4.10;;
65033;SDS011;51601;51.356;12.458;2023-05-15T18:09:27;9.07;;;4.30;;
65033;SDS011;51601;51.356;12.458;2023-05-15T18:13:46;7.30;;;4.15;;
65033;SDS011;51601;51.356;12.458;2023-05-15T18:18:06;9.40;;;4.43;;
65033;SDS011;51601;51.356;12.458;2023-05-15T18:22:24;7.10;;;4.13;;
65033;SDS011;51601;51.356;12.458;2023-05-15T18:26:42;9.80;;;4.18;;
65033;SDS011;51601;51.356;12.458;2023-05-15T18:31:01;8.05;;;4.30;;
65033;SDS011;51601;51.356;12.458;2023-05-15T18:35:21;7.23;;;4.13;;
65033;SDS011;51601;51.356;12.458;2023-05-15T18:39:39;7.85;;;4.47;;
65033;SDS011;51601;51.356;12.458;2023-05-15T18:44:00;8.30;;;4.03;;
65033;SDS011;51601;51.356;12.458;2023-05-15T18:48:20;8.03;;;4.37;;
65033;SDS011;51601;51.356;12.458;2023-05-15T18:52:40;7.57;;;4.10;;
65033;SDS011;51601;51.356;12.458;2023-05-15T18:56:58;9.07;;;4.90;;
65033;SDS011;51601;51.356;12.458;2023-05-15T19:01:16;9.20;;;4.70;;
65033;SDS011;51601;51.356;12.458;2023-05-15T19:05:35;8.38;;;4.55;;
65033;SDS011;51601;51.356;12.458;2023-05-15T19:09:55;9.38;;;4.82;;
65033;SDS011;51601;51.356;12.458;2023-05-15T19:14:16;8.82;;;4.63;;
65033;SDS011;51601;51.356;12.458;2023-05-15T19:18:34;9.20;;;4.87;;
65033;SDS011;51601;51.356;12.458;2023-05-15T19:22:53;8.10;;;4.95;;
65033;SDS011;51601;51.356;12.458;2023-05-15T19:27:13;9.35;;;5.45;;
65033;SDS011;51601;51.356;12.458;2023-05-15T19:31:31;9.40;;;5.73;;
65033;SDS011;51601;51.356;12.458;2023-05-15T19:35:49;10.38;;;5.68;;
65033;SDS011;51601;51.356;12.458;2023-05-15T19:40:09;10.23;;;5.70;;
65033;SDS011;51601;51.356;12.458;2023-05-15T19:44:28;9.30;;;5.33;;
65033;SDS011;51601;51.356;12.458;2023-05-15T19:48:46;10.23;;;5.30;;
65033;SDS011;51601;51.356;12.458;2023-05-15T19:53:05;8.75;;;5.25;;
65033;SDS011;51601;51.356;12.458;2023-05-15T19:57:24;8.52;;;4.90;;
65033;SDS011;51601;51.356;12.458;2023-05-15T20:01:44;9.20;;;5.00;;
65033;SDS011;51601;51.356;12.458;2023-05-15T20:06:02;9.85;;;4.72;;
65033;SDS011;51601;51.356;12.458;2023-05-15T20:10:20;8.50;;;5.10;;
65033;SDS011;51601;51.356;12.458;2023-05-15T20:14:39;8.73;;;4.90;;
65033;SDS011;51601;51.356;12.458;2023-05-15T20:18:59;7.43;;;4.50;;
65033;SDS011;51601;51.356;12.458;2023-05-15T20:23:17;8.50;;;4.80;;
65033;SDS011;51601;51.356;12.458;2023-05-15T20:27:35;9.83;;;5.10;;
65033;SDS011;51601;51.356;12.458;2023-05-15T20:31:55;10.82;;;6.05;;
65033;SDS011;51601;51.356;12.458;2023-05-15T20:36:14;9.57;;;5.38;;
65033;SDS011;51601;51.356;12.458;2023-05-15T20:40:32;9.40;;;5.72;;
65033;SDS011;51601;51.356;12.458;2023-05-15T20:44:50;9.90;;;5.40;;
65033;SDS011;51601;51.356;12.458;2023-05-15T20:49:10;9.65;;;5.45;;
65033;SDS011;51601;51.356;12.458;2023-05-15T20:53:30;10.40;;;5.65;;
65033;SDS011;51601;51.356;12.458;2023-05-15T20:57:48;9.20;;;5.43;;
65033;SDS011;51601;51.356;12.458;2023-05-15T21:02:06;9.55;;;4.97;;
65033;SDS011;51601;51.356;12.458;2023-05-15T21:06:25;9.82;;;5.70;;
65033;SDS011;51601;51.356;12.458;2023-05-15T21:10:45;9.20;;;5.70;;
65033;SDS011;51601;51.356;12.458;2023-05-15T21:15:06;9.68;;;5.50;;
65033;SDS011;51601;51.356;12.458;2023-05-15T21:19:27;9.75;;;5.82;;
65033;SDS011;51601;51.356;12.458;2023-05-15T21:23:50;10.07;;;5.40;;
65033;SDS011;51601;51.356;12.458;2023-05-15T21:28:09;10.10;;;5.57;;
65033;SDS011;51601;51.356;12.458;2023-05-15T21:32:27;10.77;;;6.55;;
65033;SDS011;51601;51.356;12.458;2023-05-15T21:36:46;10.45;;;5.80;;
65033;SDS011;51601;51.356;12.458;2023-05-15T21:41:05;10.27;;;5.57;;
65033;SDS011;51601;51.356;12.458;2023-05-15T21:45:25;10.45;;;6.55;;
65033;SDS011;51601;51.356;12.458;2023-05-15T21:49:43;10.68;;;6.18;;
65033;SDS011;51601;51.356;12.458;2023-05-15T21:54:01;11.70;;;6.40;;
65033;SDS011;51601;51.356;12.458;2023-05-15T21:58:20;11.38;;;6.30;;
65033;SDS011;51601;51.356;12.458;2023-05-15T22:02:40;10.60;;;6.72;;
65033;SDS011;51601;51.356;12.458;2023-05-15T22:06:58;12.35;;;6.97;;
65033;SDS011;51601;51.356;12.458;2023-05-15T22:11:16;12.43;;;6.70;;
65033;SDS011;51601;51.356;12.458;2023-05-15T22:15:36;12.60;;;6.70;;
65033;SDS011;51601;51.356;12.458;2023-05-15T22:19:55;12.55;;;6.35;;
65033;SDS011;51601;51.356;12.458;2023-05-15T22:24:23;12.27;;;7.30;;
65033;SDS011;51601;51.356;12.458;2023-05-15T22:28:41;10.73;;;6.60;;
65033;SDS011;51601;51.356;12.458;2023-05-15T22:33:00;12.73;;;7.20;;
65033;SDS011;51601;51.356;12.458;2023-05-15T22:37:20;12.87;;;7.07;;
65033;SDS011;51601;51.356;12.458;2023-05-15T22:41:38;11.45;;;7.22;;
65033;SDS011;51601;51.356;12.458;2023-05-15T22:45:56;11.75;;;7.25;;
65033;SDS011;51601;51.356;12.458;2023-05-15T22:50:15;11.13;;;6.90;;
65033;SDS011;51601;51.356;12.458;2023-05-15T22:54:35;12.83;;;6.87;;
65033;SDS011;51601;51.356;12.458;2023-05-15T22:58:53;11.15;;;6.88;;
65033;SDS011;51601;51.356;12.458;2023-05-15T23:03:11;12.40;;;6.85;;
65033;SDS011;51601;51.356;12.458;2023-05-15T23:07:31;12.70;;;6.87;;
65033;SDS011;51601;51.356;12.458;2023-05-15T23:11:50;12.05;;;6.90;;
65033;SDS011;51601;51.356;12.458;2023-05-15T23:16:08;10.68;;;6.18;;
65033;SDS011;51601;51.356;12.458;2023-05-15T23:20:27;11.93;;;7.00;;
65033;SDS011;51601;51.356;12.458;2023-05-15T23:24:46;11.77;;;7.20;;
65033;SDS011;51601;51.356;12.458;2023-05-15T23:29:06;12.23;;;7.13;;
65033;SDS011;51601;51.356;12.458;2023-05-15T23:33:24;12.10;;;7.28;;
65033;SDS011;51601;51.356;12.458;2023-05-15T23:37:42;12.77;;;7.20;;
65033;SDS011;51601;51.356;12.458;2023-05-15T23:42:01;13.75;;;7.30;;
65033;SDS011;51601;51.356;12.458;2023-05-15T23:46:21;14.48;;;6.90;;
65033;SDS011;51601;51.356;12.458;2023-05-15T23:50:39;14.07;;;7.13;;
65033;SDS011;51601;51.356;12.458;2023-05-15T23:54:57;12.10;;;7.07;;
65033;SDS011;51601;51.356;12.458;2023-05-15T23:59:17;12.38;;;6.90;;
